sensor_id;sensor_type;location;lat;lon;timestamp;pressure;altitude;pressure_sealevel;temperature;humidity
34243;BME280;20504;43.214;27.920;2022-12-18T00:00:27;97970.22;;;15.38;100.00
34243;BME280;20504;43.214;27.920;2022-12-18T00:02:52;97966.03;;;15.29;100.00
34243;BME280;20504;43.214;27.920;2022-12-18T00:05:18;97990.47;;;15.26;100.00
34243;BME280;20504;43.214;27.920;2022-12-18T00:07:43;97978.31;;;15.45;100.00
34243;BME280;20504;43.214;27.920;2022-12-18T00:10:09;98005.84;;;15.45;100.00
34243;BME280;20504;43.214;27.920;2022-12-18T00:12:34;98050.53;;;15.37;100.00
34243;BME280;20504;43.214;27.920;2022-12-18T00:15:00;98033.19;;;15.48;100.00
34243;BME280;20504;43.214;27.920;2022-12-18T00:17:25;98090.97;;;15.34;100.00
34243;BME280;20504;43.214;27.920;2022-12-18T00:19:51;98070.19;;;15.51;100.00
34243;BME280;20504;43.214;27.920;2022-12-18T00:22:16;98077.25;;;15.58;100.00
34243;BME280;20504;43.214;27.920;2022-12-18T00:24:43;98103.31;;;15.56;100.00
34243;BME280;20504;43.214;27.920;2022-12-18T00:27:08;98127.22;;;15.43;100.00
34243;BME280;20504;43.214;27.920;2022-12-18T00:29:34;98140.66;;;15.50;100.00
34243;BME280;20504;43.214;27.920;2022-12-18T00:31:59;98150.72;;;15.48;100.00
34243;BME280;20504;43.214;27.920;2022-12-18T00:34:25;98154.28;;;15.55;100.00
34243;BME280;20504;43.214;27.920;2022-12-18T00:36:50;98202.00;;;15.43;100.00
34243;BME280;20504;43.214;27.920;2022-12-18T00:39:15;98211.50;;;15.45;100.00
34243;BME280;20504;43.214;27.920;2022-12-18T00:41:41;98247.03;;;15.31;100.00
34243;BME280;20504;43.214;27.920;2022-12-18T00:44:25;98231.09;;;15.23;100.00
34243;BME280;20504;43.214;27.920;2022-12-18T00:46:51;98241.97;;;15.22;100.00
34243;BME280;20504;43.214;27.920;2022-12-18T00:49:18;98276.53;;;15.00;100.00
34243;BME280;20504;43.214;27.920;2022-12-18T00:51:43;98241.63;;;15.25;100.00
34243;BME280;20504;43.214;27.920;2022-12-18T00:54:09;98244.19;;;15.33;100.00
34243;BME280;20504;43.214;27.920;2022-12-18T00:56:36;98243.53;;;15.16;100.00
34243;BME280;20504;43.214;27.920;2022-12-18T00:59:02;98268.81;;;15.05;100.00
34243;BME280;20504;43.214;27.920;2022-12-18T01:01:28;98278.84;;;15.03;100.00
34243;BME280;20504;43.214;27.920;2022-12-18T01:03:53;98268.47;;;15.08;100.00
34243;BME280;20504;43.214;27.920;2022-12-18T01:06:19;98274.81;;;15.22;100.00
34243;BME280;20504;43.214;27.920;2022-12-18T01:08:45;98260.47;;;15.23;100.00
34243;BME280;20504;43.214;27.920;2022-12-18T01:11:17;98221.06;;;15.40;100.00
34243;BME280;20504;43.214;27.920;2022-12-18T01:13:43;98278.03;;;15.03;100.00
34243;BME280;20504;43.214;27.920;2022-12-18T01:16:11;98270.88;;;15.18;100.00
34243;BME280;20504;43.214;27.920;2022-12-18T01:18:37;98273.66;;;15.25;100.00
34243;BME280;20504;43.214;27.920;2022-12-18T01:21:10;98321.78;;;14.79;100.00
34243;BME280;20504;43.214;27.920;2022-12-18T01:23:36;98309.94;;;14.96;100.00
34243;BME280;20504;43.214;27.920;2022-12-18T01:26:12;98293.78;;;15.12;100.00
34243;BME280;20504;43.214;27.920;2022-12-18T01:28:38;98284.50;;;15.08;100.00
34243;BME280;20504;43.214;27.920;2022-12-18T01:31:19;98282.94;;;15.14;100.00
34243;BME280;20504;43.214;27.920;2022-12-18T01:33:45;98292.75;;;14.99;100.00
34243;BME280;20504;43.214;27.920;2022-12-18T01:36:25;98286.53;;;15.06;100.00
34243;BME280;20504;43.214;27.920;2022-12-18T01:38:51;98271.16;;;15.23;100.00
34243;BME280;20504;43.214;27.920;2022-12-18T01:41:18;98294.53;;;15.06;100.00
34243;BME280;20504;43.214;27.920;2022-12-18T01:46:16;98282.19;;;15.20;100.00
34243;BME280;20504;43.214;27.920;2022-12-18T01:48:44;98286.00;;;15.26;100.00
34243;BME280;20504;43.214;27.920;2022-12-18T01:51:12;98319.47;;;15.13;100.00
34243;BME280;20504;43.214;27.920;2022-12-18T01:53:39;98345.72;;;15.10;100.00
34243;BME280;20504;43.214;27.920;2022-12-18T01:56:05;98343.09;;;15.02;100.00
34243;BME280;20504;43.214;27.920;2022-12-18T02:01:20;98348.06;;;15.05;100.00
34243;BME280;20504;43.214;27.920;2022-12-18T02:03:47;98355.41;;;15.03;100.00
34243;BME280;20504;43.214;27.920;2022-12-18T02:09:19;98357.44;;;15.01;100.00
34243;BME280;20504;43.214;27.920;2022-12-18T02:12:13;98370.97;;;14.99;100.00
34243;BME280;20504;43.214;27.920;2022-12-18T02:15:48;98407.25;;;14.85;100.00
34243;BME280;20504;43.214;27.920;2022-12-18T02:18:09;98382.84;;;14.97;100.00
34243;BME280;20504;43.214;27.920;2022-12-18T02:20:45;98374.91;;;14.89;100.00
34243;BME280;20504;43.214;27.920;2022-12-18T02:26:13;98439.31;;;14.54;100.00
34243;BME280;20504;43.214;27.920;2022-12-18T02:28:49;98409.72;;;14.64;100.00
34243;BME280;20504;43.214;27.920;2022-12-18T02:31:25;98366.13;;;14.80;100.00
34243;BME280;20504;43.214;27.920;2022-12-18T02:33:54;98399.97;;;14.79;100.00
34243;BME280;20504;43.214;27.920;2022-12-18T02:36:22;98410.06;;;14.69;100.00
34243;BME280;20504;43.214;27.920;2022-12-18T02:38:50;98416.28;;;14.84;100.00
34243;BME280;20504;43.214;27.920;2022-12-18T02:41:18;98450.75;;;14.63;100.00
34243;BME280;20504;43.214;27.920;2022-12-18T02:43:47;98445.13;;;14.58;100.00
34243;BME280;20504;43.214;27.920;2022-12-18T02:48:54;98461.16;;;14.50;100.00
34243;BME280;20504;43.214;27.920;2022-12-18T02:51:35;98455.72;;;14.66;100.00
34243;BME280;20504;43.214;27.920;2022-12-18T02:54:18;98485.16;;;14.50;100.00
34243;BME280;20504;43.214;27.920;2022-12-18T02:56:50;98512.19;;;14.31;100.00
34243;BME280;20504;43.214;27.920;2022-12-18T02:59:21;98473.34;;;14.44;100.00
34243;BME280;20504;43.214;27.920;2022-12-18T03:02:26;98482.03;;;14.30;100.00
34243;BME280;20504;43.214;27.920;2022-12-18T03:04:55;98445.03;;;14.27;100.00
34243;BME280;20504;43.214;27.920;2022-12-18T03:07:36;98454.53;;;14.30;100.00
34243;BME280;20504;43.214;27.920;2022-12-18T03:10:05;98461.75;;;14.21;100.00
34243;BME280;20504;43.214;27.920;2022-12-18T03:12:38;98431.41;;;14.22;100.00
34243;BME280;20504;43.214;27.920;2022-12-18T03:15:13;98438.41;;;14.23;100.00
34243;BME280;20504;43.214;27.920;2022-12-18T03:17:46;98440.28;;;14.14;100.00
34243;BME280;20504;43.214;27.920;2022-12-18T03:20:17;98437.78;;;14.05;100.00
34243;BME280;20504;43.214;27.920;2022-12-18T03:22:46;98467.81;;;13.99;100.00
34243;BME280;20504;43.214;27.920;2022-12-18T03:25:15;98417.56;;;14.27;100.00
34243;BME280;20504;43.214;27.920;2022-12-18T03:27:48;98420.09;;;14.20;100.00
34243;BME280;20504;43.214;27.920;2022-12-18T03:30:15;98418.78;;;14.16;100.00
34243;BME280;20504;43.214;27.920;2022-12-18T03:35:29;98433.00;;;14.00;100.00
34243;BME280;20504;43.214;27.920;2022-12-18T03:37:56;98402.13;;;14.14;100.00
34243;BME280;20504;43.214;27.920;2022-12-18T03:40:40;98398.94;;;14.18;100.00
34243;BME280;20504;43.214;27.920;2022-12-18T03:43:25;98413.94;;;14.11;100.00
34243;BME280;20504;43.214;27.920;2022-12-18T03:46:11;98405.94;;;14.11;100.00
34243;BME280;20504;43.214;27.920;2022-12-18T03:48:47;98394.91;;;14.22;100.00
34243;BME280;20504;43.214;27.920;2022-12-18T03:51:20;98389.72;;;14.29;100.00
34243;BME280;20504;43.214;27.920;2022-12-18T03:54:00;98386.66;;;14.40;100.00
34243;BME280;20504;43.214;27.920;2022-12-18T03:56:30;98411.41;;;14.26;100.00
34243;BME280;20504;43.214;27.920;2022-12-18T03:58:58;98447.59;;;14.20;100.00
34243;BME280;20504;43.214;27.920;2022-12-18T04:01:30;98450.53;;;14.34;100.00
34243;BME280;20504;43.214;27.920;2022-12-18T04:03:59;98497.25;;;14.13;100.00
34243;BME280;20504;43.214;27.920;2022-12-18T04:06:26;98528.38;;;14.21;100.00
34243;BME280;20504;43.214;27.920;2022-12-18T04:08:53;98563.38;;;14.18;100.00
34243;BME280;20504;43.214;27.920;2022-12-18T04:11:19;98582.84;;;14.27;100.00
34243;BME280;20504;43.214;27.920;2022-12-18T04:13:44;98595.53;;;14.24;100.00
34243;BME280;20504;43.214;27.920;2022-12-18T04:16:10;98640.19;;;14.22;100.00
34243;BME280;20504;43.214;27.920;2022-12-18T04:18:35;98663.66;;;14.27;100.00
34243;BME280;20504;43.214;27.920;2022-12-18T04:21:02;98715.50;;;14.16;100.00
34243;BME280;20504;43.214;27.920;2022-12-18T04:23:27;98728.97;;;13.99;100.00
34243;BME280;20504;43.214;27.920;2022-12-18T04:25:53;98758.16;;;14.16;100.00
34243;BME280;20504;43.214;27.920;2022-12-18T04:28:19;98760.28;;;14.13;100.00
34243;BME280;20504;43.214;27.920;2022-12-18T04:30:48;98809.41;;;14.02;100.00
34243;BME280;20504;43.214;27.920;2022-12-18T04:33:13;98823.94;;;14.08;100.00
34243;BME280;20504;43.214;27.920;2022-12-18T04:35:40;98845.34;;;13.90;100.00
34243;BME280;20504;43.214;27.920;2022-12-18T04:38:07;98872.06;;;13.72;100.00
34243;BME280;20504;43.214;27.920;2022-12-18T04:40:34;98879.75;;;13.75;100.00
34243;BME280;20504;43.214;27.920;2022-12-18T04:42:59;98904.09;;;13.80;100.00
34243;BME280;20504;43.214;27.920;2022-12-18T04:45:25;98921.16;;;13.61;100.00
34243;BME280;20504;43.214;27.920;2022-12-18T04:47:50;98944.63;;;13.66;100.00
34243;BME280;20504;43.214;27.920;2022-12-18T04:50:16;98998.25;;;13.45;100.00
34243;BME280;20504;43.214;27.920;2022-12-18T04:52:41;99012.88;;;13.41;100.00
34243;BME280;20504;43.214;27.920;2022-12-18T04:55:07;99057.00;;;13.26;100.00
34243;BME280;20504;43.214;27.920;2022-12-18T04:57:32;99035.59;;;13.36;100.00
34243;BME280;20504;43.214;27.920;2022-12-18T04:59:58;99040.25;;;13.33;100.00
34243;BME280;20504;43.214;27.920;2022-12-18T05:02:23;99054.25;;;13.36;100.00
34243;BME280;20504;43.214;27.920;2022-12-18T05:04:49;99099.34;;;13.19;100.00
34243;BME280;20504;43.214;27.920;2022-12-18T05:07:14;99118.38;;;13.15;100.00
34243;BME280;20504;43.214;27.920;2022-12-18T05:09:40;99142.56;;;13.03;100.00
34243;BME280;20504;43.214;27.920;2022-12-18T05:12:05;99141.97;;;13.10;100.00
34243;BME280;20504;43.214;27.920;2022-12-18T05:14:31;99166.09;;;12.98;100.00
34243;BME280;20504;43.214;27.920;2022-12-18T05:16:56;99162.94;;;13.13;100.00
34243;BME280;20504;43.214;27.920;2022-12-18T05:19:22;99156.34;;;12.89;100.00
34243;BME280;20504;43.214;27.920;2022-12-18T05:21:47;99174.56;;;12.84;100.00
34243;BME280;20504;43.214;27.920;2022-12-18T05:24:13;99191.63;;;12.82;100.00
34243;BME280;20504;43.214;27.920;2022-12-18T05:26:38;99216.22;;;12.66;100.00
34243;BME280;20504;43.214;27.920;2022-12-18T05:29:04;99196.78;;;12.56;100.00
34243;BME280;20504;43.214;27.920;2022-12-18T05:31:29;99220.81;;;12.64;100.00
34243;BME280;20504;43.214;27.920;2022-12-18T05:33:55;99260.31;;;12.59;100.00
34243;BME280;20504;43.214;27.920;2022-12-18T05:36:20;99229.41;;;12.48;100.00
34243;BME280;20504;43.214;27.920;2022-12-18T05:38:45;99233.72;;;12.59;100.00
34243;BME280;20504;43.214;27.920;2022-12-18T05:41:11;99245.91;;;12.52;100.00
34243;BME280;20504;43.214;27.920;2022-12-18T05:43:38;99252.91;;;12.53;100.00
34243;BME280;20504;43.214;27.920;2022-12-18T05:46:10;99265.34;;;12.42;100.00
34243;BME280;20504;43.214;27.920;2022-12-18T05:48:36;99273.63;;;12.39;100.00
34243;BME280;20504;43.214;27.920;2022-12-18T05:51:11;99293.09;;;12.30;100.00
34243;BME280;20504;43.214;27.920;2022-12-18T05:53:37;99311.22;;;12.06;100.00
34243;BME280;20504;43.214;27.920;2022-12-18T05:56:04;99344.09;;;11.95;100.00
34243;BME280;20504;43.214;27.920;2022-12-18T05:58:31;99343.66;;;12.00;100.00
34243;BME280;20504;43.214;27.920;2022-12-18T06:00:57;99414.22;;;11.83;100.00
34243;BME280;20504;43.214;27.920;2022-12-18T06:03:23;99383.03;;;11.85;100.00
34243;BME280;20504;43.214;27.920;2022-12-18T06:05:49;99404.38;;;11.74;100.00
34243;BME280;20504;43.214;27.920;2022-12-18T06:08:14;99427.16;;;11.76;100.00
34243;BME280;20504;43.214;27.920;2022-12-18T06:10:40;99419.00;;;11.68;100.00
34243;BME280;20504;43.214;27.920;2022-12-18T06:13:06;99435.88;;;11.78;100.00
34243;BME280;20504;43.214;27.920;2022-12-18T06:15:32;99450.16;;;11.66;100.00
34243;BME280;20504;43.214;27.920;2022-12-18T06:17:58;99457.38;;;11.75;100.00
34243;BME280;20504;43.214;27.920;2022-12-18T06:20:25;99433.94;;;11.80;100.00
34243;BME280;20504;43.214;27.920;2022-12-18T06:22:50;99456.72;;;11.83;100.00
34243;BME280;20504;43.214;27.920;2022-12-18T06:25:16;99488.88;;;11.80;100.00
34243;BME280;20504;43.214;27.920;2022-12-18T06:27:41;99484.44;;;11.69;100.00
34243;BME280;20504;43.214;27.920;2022-12-18T06:30:07;99446.03;;;12.04;100.00
34243;BME280;20504;43.214;27.920;2022-12-18T06:32:33;99499.38;;;11.70;100.00
34243;BME280;20504;43.214;27.920;2022-12-18T06:34:59;99489.84;;;11.79;100.00
34243;BME280;20504;43.214;27.920;2022-12-18T06:37:24;99479.25;;;11.89;100.00
34243;BME280;20504;43.214;27.920;2022-12-18T06:39:52;99511.34;;;11.76;100.00
34243;BME280;20504;43.214;27.920;2022-12-18T06:42:17;99510.81;;;11.82;100.00
34243;BME280;20504;43.214;27.920;2022-12-18T06:44:43;99505.78;;;11.79;100.00
34243;BME280;20504;43.214;27.920;2022-12-18T06:47:08;99483.34;;;11.72;100.00
34243;BME280;20504;43.214;27.920;2022-12-18T06:49:34;99526.34;;;11.66;100.00
34243;BME280;20504;43.214;27.920;2022-12-18T06:51:59;99518.25;;;11.67;100.00
34243;BME280;20504;43.214;27.920;2022-12-18T06:54:25;99492.38;;;11.80;100.00
34243;BME280;20504;43.214;27.920;2022-12-18T06:56:50;99467.91;;;11.87;100.00
34243;BME280;20504;43.214;27.920;2022-12-18T06:59:16;99465.28;;;11.66;100.00
34243;BME280;20504;43.214;27.920;2022-12-18T07:01:41;99518.13;;;11.69;100.00
34243;BME280;20504;43.214;27.920;2022-12-18T07:04:07;99538.19;;;11.41;100.00
34243;BME280;20504;43.214;27.920;2022-12-18T07:06:32;99536.50;;;11.40;100.00
34243;BME280;20504;43.214;27.920;2022-12-18T07:08:58;99543.19;;;11.34;100.00
34243;BME280;20504;43.214;27.920;2022-12-18T07:11:24;99538.34;;;11.39;100.00
34243;BME280;20504;43.214;27.920;2022-12-18T07:13:49;99550.09;;;11.26;100.00
34243;BME280;20504;43.214;27.920;2022-12-18T07:16:17;99526.75;;;11.40;100.00
34243;BME280;20504;43.214;27.920;2022-12-18T07:18:43;99541.91;;;11.17;100.00
34243;BME280;20504;43.214;27.920;2022-12-18T07:21:12;99526.88;;;11.39;100.00
34243;BME280;20504;43.214;27.920;2022-12-18T07:23:38;99539.75;;;11.11;100.00
34243;BME280;20504;43.214;27.920;2022-12-18T07:26:09;99568.34;;;11.08;100.00
34243;BME280;20504;43.214;27.920;2022-12-18T07:28:36;99567.50;;;11.07;100.00
34243;BME280;20504;43.214;27.920;2022-12-18T07:31:12;99557.75;;;11.08;100.00
34243;BME280;20504;43.214;27.920;2022-12-18T07:33:38;99547.94;;;11.19;100.00
34243;BME280;20504;43.214;27.920;2022-12-18T07:36:06;99518.41;;;11.34;100.00
34243;BME280;20504;43.214;27.920;2022-12-18T07:38:32;99532.56;;;11.34;100.00
34243;BME280;20504;43.214;27.920;2022-12-18T07:41:16;99515.53;;;11.37;100.00
34243;BME280;20504;43.214;27.920;2022-12-18T07:43:42;99543.13;;;11.13;100.00
34243;BME280;20504;43.214;27.920;2022-12-18T07:46:09;99551.59;;;11.07;100.00
34243;BME280;20504;43.214;27.920;2022-12-18T07:48:34;99529.13;;;11.11;100.00
34243;BME280;20504;43.214;27.920;2022-12-18T07:51:02;99534.19;;;11.14;100.00
34243;BME280;20504;43.214;27.920;2022-12-18T07:53:29;99537.09;;;11.11;100.00
34243;BME280;20504;43.214;27.920;2022-12-18T07:55:59;99528.28;;;11.22;100.00
34243;BME280;20504;43.214;27.920;2022-12-18T07:58:25;99527.41;;;10.89;100.00
34243;BME280;20504;43.214;27.920;2022-12-18T08:00:51;99526.81;;;10.97;100.00
34243;BME280;20504;43.214;27.920;2022-12-18T08:03:18;99512.75;;;11.06;100.00
34243;BME280;20504;43.214;27.920;2022-12-18T08:05:43;99518.03;;;11.17;100.00
34243;BME280;20504;43.214;27.920;2022-12-18T08:08:09;99522.69;;;10.93;100.00
34243;BME280;20504;43.214;27.920;2022-12-18T08:10:37;99515.03;;;11.11;100.00
34243;BME280;20504;43.214;27.920;2022-12-18T08:13:03;99490.59;;;11.28;100.00
34243;BME280;20504;43.214;27.920;2022-12-18T08:15:28;99503.72;;;11.30;100.00
34243;BME280;20504;43.214;27.920;2022-12-18T08:17:56;99505.66;;;11.28;100.00
34243;BME280;20504;43.214;27.920;2022-12-18T08:20:22;99510.56;;;11.11;100.00
34243;BME280;20504;43.214;27.920;2022-12-18T08:22:47;99536.06;;;11.03;100.00
34243;BME280;20504;43.214;27.920;2022-12-18T08:25:13;99511.34;;;11.02;100.00
34243;BME280;20504;43.214;27.920;2022-12-18T08:27:38;99501.50;;;11.14;100.00
34243;BME280;20504;43.214;27.920;2022-12-18T08:30:04;99478.94;;;11.19;100.00
34243;BME280;20504;43.214;27.920;2022-12-18T08:32:31;99458.28;;;11.44;100.00
34243;BME280;20504;43.214;27.920;2022-12-18T08:34:58;99413.88;;;11.46;100.00
34243;BME280;20504;43.214;27.920;2022-12-18T08:37:23;99374.34;;;11.52;100.00
34243;BME280;20504;43.214;27.920;2022-12-18T08:39:49;99367.06;;;11.45;100.00
34243;BME280;20504;43.214;27.920;2022-12-18T08:42:14;99356.88;;;11.50;100.00
34243;BME280;20504;43.214;27.920;2022-12-18T08:44:58;99379.34;;;11.46;100.00
34243;BME280;20504;43.214;27.920;2022-12-18T08:47:24;99393.78;;;11.32;100.00
34243;BME280;20504;43.214;27.920;2022-12-18T08:49:51;99402.56;;;11.23;100.00
34243;BME280;20504;43.214;27.920;2022-12-18T08:52:16;99420.69;;;11.18;100.00
34243;BME280;20504;43.214;27.920;2022-12-18T08:54:42;99420.09;;;11.14;100.00
34243;BME280;20504;43.214;27.920;2022-12-18T08:57:07;99375.09;;;11.34;100.00
34243;BME280;20504;43.214;27.920;2022-12-18T08:59:33;99374.91;;;11.26;100.00
34243;BME280;20504;43.214;27.920;2022-12-18T09:01:58;99389.16;;;11.25;100.00
34243;BME280;20504;43.214;27.920;2022-12-18T09:04:24;99373.41;;;11.33;100.00
34243;BME280;20504;43.214;27.920;2022-12-18T09:06:49;99361.03;;;11.43;100.00
34243;BME280;20504;43.214;27.920;2022-12-18T09:09:15;99334.00;;;11.59;100.00
34243;BME280;20504;43.214;27.920;2022-12-18T09:11:41;99328.84;;;11.57;100.00
34243;BME280;20504;43.214;27.920;2022-12-18T09:14:06;99345.63;;;11.67;100.00
34243;BME280;20504;43.214;27.920;2022-12-18T09:16:33;99360.06;;;11.44;100.00
34243;BME280;20504;43.214;27.920;2022-12-18T09:19:03;99350.41;;;11.43;100.00
34243;BME280;20504;43.214;27.920;2022-12-18T09:21:32;99360.19;;;11.42;100.00
34243;BME280;20504;43.214;27.920;2022-12-18T09:23:58;99329.31;;;11.72;100.00
34243;BME280;20504;43.214;27.920;2022-12-18T09:26:25;99343.78;;;11.58;100.00
34243;BME280;20504;43.214;27.920;2022-12-18T09:28:51;99339.03;;;11.62;100.00
34243;BME280;20504;43.214;27.920;2022-12-18T09:31:18;99315.84;;;11.64;100.00
34243;BME280;20504;43.214;27.920;2022-12-18T09:33:44;99293.03;;;11.92;100.00
34243;BME280;20504;43.214;27.920;2022-12-18T09:36:12;99301.16;;;11.90;100.00
34243;BME280;20504;43.214;27.920;2022-12-18T09:38:38;99306.47;;;11.90;100.00
34243;BME280;20504;43.214;27.920;2022-12-18T09:44:01;99307.56;;;11.88;100.00
34243;BME280;20504;43.214;27.920;2022-12-18T09:46:37;99325.22;;;12.08;100.00
34243;BME280;20504;43.214;27.920;2022-12-18T09:49:07;99335.84;;;12.08;100.00
34243;BME280;20504;43.214;27.920;2022-12-18T09:54:25;99354.19;;;12.11;100.00
34243;BME280;20504;43.214;27.920;2022-12-18T09:56:51;99382.22;;;11.85;100.00
34243;BME280;20504;43.214;27.920;2022-12-18T09:59:29;99380.44;;;11.95;100.00
34243;BME280;20504;43.214;27.920;2022-12-18T10:01:57;99360.53;;;11.89;100.00
34243;BME280;20504;43.214;27.920;2022-12-18T10:04:23;99371.91;;;12.01;100.00
34243;BME280;20504;43.214;27.920;2022-12-18T10:06:59;99383.78;;;11.97;100.00
34243;BME280;20504;43.214;27.920;2022-12-18T10:09:41;99393.72;;;11.95;100.00
34243;BME280;20504;43.214;27.920;2022-12-18T10:12:17;99388.09;;;11.88;100.00
34243;BME280;20504;43.214;27.920;2022-12-18T10:15:16;99404.75;;;11.90;100.00
34243;BME280;20504;43.214;27.920;2022-12-18T10:18:00;99418.03;;;11.69;100.00
34243;BME280;20504;43.214;27.920;2022-12-18T10:20:47;99422.34;;;11.61;100.00
34243;BME280;20504;43.214;27.920;2022-12-18T10:23:41;99391.16;;;11.83;100.00
34243;BME280;20504;43.214;27.920;2022-12-18T10:26:10;99421.47;;;12.11;100.00
34243;BME280;20504;43.214;27.920;2022-12-18T10:28:40;99419.38;;;12.25;100.00
34243;BME280;20504;43.214;27.920;2022-12-18T10:31:13;99404.44;;;12.33;100.00
34243;BME280;20504;43.214;27.920;2022-12-18T10:33:39;99404.88;;;12.38;100.00
34243;BME280;20504;43.214;27.920;2022-12-18T10:36:06;99399.59;;;12.67;100.00
34243;BME280;20504;43.214;27.920;2022-12-18T10:38:32;99439.63;;;12.47;100.00
34243;BME280;20504;43.214;27.920;2022-12-18T10:41:00;99457.38;;;12.56;100.00
34243;BME280;20504;43.214;27.920;2022-12-18T10:48:54;99477.13;;;12.63;100.00
34243;BME280;20504;43.214;27.920;2022-12-18T10:51:31;99519.25;;;12.58;100.00
34243;BME280;20504;43.214;27.920;2022-12-18T10:54:16;99489.63;;;12.72;100.00
34243;BME280;20504;43.214;27.920;2022-12-18T10:56:42;99506.59;;;13.00;100.00
34243;BME280;20504;43.214;27.920;2022-12-18T10:59:11;99508.19;;;13.22;100.00
34243;BME280;20504;43.214;27.920;2022-12-18T11:01:54;99530.91;;;13.26;100.00
34243;BME280;20504;43.214;27.920;2022-12-18T11:04:28;99563.91;;;13.14;100.00
34243;BME280;20504;43.214;27.920;2022-12-18T11:06:59;99586.47;;;13.10;100.00
34243;BME280;20504;43.214;27.920;2022-12-18T11:09:26;99641.03;;;12.85;100.00
34243;BME280;20504;43.214;27.920;2022-12-18T11:11:52;99639.66;;;12.90;100.00
34243;BME280;20504;43.214;27.920;2022-12-18T11:14:28;99644.84;;;12.92;100.00
34243;BME280;20504;43.214;27.920;2022-12-18T11:16:55;99646.94;;;12.98;100.00
34243;BME280;20504;43.214;27.920;2022-12-18T11:19:39;99699.34;;;12.67;100.00
34243;BME280;20504;43.214;27.920;2022-12-18T11:22:29;99682.47;;;12.57;100.00
34243;BME280;20504;43.214;27.920;2022-12-18T11:25:05;99711.75;;;12.36;100.00
34243;BME280;20504;43.214;27.920;2022-12-18T11:27:32;99722.50;;;12.13;100.00
34243;BME280;20504;43.214;27.920;2022-12-18T11:30:08;99719.31;;;11.99;100.00
34243;BME280;20504;43.214;27.920;2022-12-18T11:32:43;99670.19;;;12.14;100.00
34243;BME280;20504;43.214;27.920;2022-12-18T11:38:01;99682.19;;;11.76;100.00
34243;BME280;20504;43.214;27.920;2022-12-18T11:40:37;99649.06;;;11.92;100.00
34243;BME280;20504;43.214;27.920;2022-12-18T11:43:21;99666.84;;;11.80;100.00
34243;BME280;20504;43.214;27.920;2022-12-18T11:45:58;99613.59;;;12.02;100.00
34243;BME280;20504;43.214;27.920;2022-12-18T11:48:49;99554.59;;;12.29;100.00
34243;BME280;20504;43.214;27.920;2022-12-18T11:51:25;99549.28;;;12.29;100.00
34243;BME280;20504;43.214;27.920;2022-12-18T11:53:54;99544.28;;;12.15;100.00
34243;BME280;20504;43.214;27.920;2022-12-18T11:56:34;99566.53;;;12.14;100.00
34243;BME280;20504;43.214;27.920;2022-12-18T12:01:53;99538.97;;;12.15;100.00
34243;BME280;20504;43.214;27.920;2022-12-18T12:07:02;99531.75;;;12.27;100.00
34243;BME280;20504;43.214;27.920;2022-12-18T12:09:44;99520.88;;;12.39;100.00
34243;BME280;20504;43.214;27.920;2022-12-18T12:17:45;99540.31;;;12.30;100.00
34243;BME280;20504;43.214;27.920;2022-12-18T12:25:40;99595.88;;;12.33;100.00
34243;BME280;20504;43.214;27.920;2022-12-18T12:38:50;99592.97;;;12.16;100.00
34243;BME280;20504;43.214;27.920;2022-12-18T12:41:21;99583.84;;;12.39;100.00
34243;BME280;20504;43.214;27.920;2022-12-18T12:44:12;99599.31;;;12.24;100.00
34243;BME280;20504;43.214;27.920;2022-12-18T12:46:41;99662.34;;;11.92;100.00
34243;BME280;20504;43.214;27.920;2022-12-18T12:49:14;99648.13;;;12.02;100.00
34243;BME280;20504;43.214;27.920;2022-12-18T12:51:58;99639.06;;;12.05;100.00
34243;BME280;20504;43.214;27.920;2022-12-18T12:54:26;99622.53;;;12.22;100.00
34243;BME280;20504;43.214;27.920;2022-12-18T12:57:23;99668.88;;;12.08;100.00
34243;BME280;20504;43.214;27.920;2022-12-18T13:08:06;99839.41;;;11.81;100.00
34243;BME280;20504;43.214;27.920;2022-12-18T13:10:38;99879.97;;;11.72;100.00
34243;BME280;20504;43.214;27.920;2022-12-18T13:13:07;99903.25;;;11.69;100.00
34243;BME280;20504;43.214;27.920;2022-12-18T13:20:35;99965.44;;;11.66;100.00
34243;BME280;20504;43.214;27.920;2022-12-18T13:25:50;100080.25;;;11.59;100.00
34243;BME280;20504;43.214;27.920;2022-12-18T13:28:21;100148.09;;;11.63;100.00
34243;BME280;20504;43.214;27.920;2022-12-18T13:43:47;100367.44;;;11.29;100.00
34243;BME280;20504;43.214;27.920;2022-12-18T13:49:01;100363.59;;;11.45;100.00
34243;BME280;20504;43.214;27.920;2022-12-18T13:51:29;100362.75;;;11.45;100.00
34243;BME280;20504;43.214;27.920;2022-12-18T13:54:00;100389.00;;;11.24;100.00
34243;BME280;20504;43.214;27.920;2022-12-18T13:56:32;100392.41;;;11.39;100.00
34243;BME280;20504;43.214;27.920;2022-12-18T14:01:53;100423.31;;;11.40;100.00
34243;BME280;20504;43.214;27.920;2022-12-18T14:04:21;100447.09;;;11.41;100.00
34243;BME280;20504;43.214;27.920;2022-12-18T14:06:50;100452.81;;;11.48;100.00
34243;BME280;20504;43.214;27.920;2022-12-18T14:09:26;100442.53;;;11.56;100.00
34243;BME280;20504;43.214;27.920;2022-12-18T14:11:52;100445.41;;;11.53;100.00
34243;BME280;20504;43.214;27.920;2022-12-18T14:14:41;100467.78;;;11.49;100.00
34243;BME280;20504;43.214;27.920;2022-12-18T14:17:11;100472.81;;;11.53;100.00
34243;BME280;20504;43.214;27.920;2022-12-18T14:19:37;100487.66;;;11.31;100.00
34243;BME280;20504;43.214;27.920;2022-12-18T14:22:44;100468.00;;;11.46;100.00
34243;BME280;20504;43.214;27.920;2022-12-18T14:25:26;100472.91;;;11.52;100.00